createdAt,value
2017-04-30T00:01:11.347Z,1015.45
2017-04-30T00:02:11.030Z,1015.49
2017-04-30T00:03:10.969Z,1015.46
2017-04-30T00:04:10.905Z,1015.48
2017-04-30T00:05:10.841Z,1015.5
2017-04-30T00:06:10.779Z,1015.48
2017-04-30T00:07:10.718Z,1015.49
2017-04-30T00:08:10.654Z,1015.48
2017-04-30T00:09:10.591Z,1015.49
2017-04-30T00:10:10.528Z,1015.48
2017-04-30T00:11:10.465Z,1015.5
2017-04-30T00:12:10.403Z,1015.48
2017-04-30T00:13:10.350Z,1015.48
2017-04-30T00:14:10.277Z,1015.53
2017-04-30T00:15:10.213Z,1015.51
2017-04-30T00:16:10.152Z,1015.49
2017-04-30T00:17:10.090Z,1015.53
2017-04-30T00:18:10.028Z,1015.52
2017-04-30T00:19:09.962Z,1015.52
2017-04-30T00:20:09.901Z,1015.48
2017-04-30T00:21:09.839Z,1015.49
2017-04-30T00:22:09.775Z,1015.5
2017-04-30T00:23:09.714Z,1015.48
2017-04-30T00:24:09.648Z,1015.49
2017-04-30T00:25:09.587Z,1015.49
2017-04-30T00:26:09.524Z,1015.5
2017-04-30T00:27:09.463Z,1015.57
2017-04-30T00:28:09.398Z,1015.53
2017-04-30T00:29:09.337Z,1015.52
2017-04-30T00:30:09.273Z,1015.54
2017-04-30T00:31:09.211Z,1015.53
2017-04-30T00:32:09.149Z,1015.52
2017-04-30T00:33:09.085Z,1015.54
2017-04-30T00:34:09.023Z,1015.52
2017-04-30T00:35:08.960Z,1015.52
2017-04-30T00:36:08.896Z,1015.53
2017-04-30T00:37:08.834Z,1015.48
2017-04-30T00:38:08.771Z,1015.48
2017-04-30T00:39:08.712Z,1015.48
2017-04-30T00:40:08.646Z,1015.49
2017-04-30T00:41:08.583Z,1015.48
2017-04-30T00:42:08.520Z,1015.46
2017-04-30T00:43:08.458Z,1015.5
2017-04-30T00:44:08.392Z,1015.51
2017-04-30T00:45:08.331Z,1015.56
2017-04-30T00:46:08.270Z,1015.52
2017-04-30T00:47:08.207Z,1015.53
2017-04-30T00:48:08.142Z,1015.56
2017-04-30T00:49:08.080Z,1015.53
2017-04-30T00:50:08.017Z,1015.58
2017-04-30T00:51:07.956Z,1015.56
2017-04-30T00:52:07.891Z,1015.56
2017-04-30T00:53:07.829Z,1015.58
2017-04-30T00:54:07.767Z,1015.6
2017-04-30T00:55:07.703Z,1015.64
2017-04-30T00:56:07.641Z,1015.65
2017-04-30T00:57:07.578Z,1015.62
2017-04-30T00:58:07.516Z,1015.63
2017-04-30T00:59:07.453Z,1015.66
2017-04-30T01:00:07.397Z,1015.67
2017-04-30T01:01:07.328Z,1015.69
2017-04-30T01:02:07.265Z,1015.67
2017-04-30T01:03:07.201Z,1015.66
2017-04-30T01:04:07.139Z,1015.7
2017-04-30T01:05:07.076Z,1015.72
2017-04-30T01:06:07.013Z,1015.7
2017-04-30T01:07:06.950Z,1015.71
2017-04-30T01:08:06.887Z,1015.76
2017-04-30T01:09:06.826Z,1015.75
2017-04-30T01:10:06.761Z,1015.76
2017-04-30T01:11:06.699Z,1015.76
2017-04-30T01:12:06.638Z,1015.79
2017-04-30T01:13:06.574Z,1015.77
2017-04-30T01:14:06.514Z,1015.77
2017-04-30T01:15:06.447Z,1015.8
2017-04-30T01:16:06.385Z,1015.82
2017-04-30T01:17:06.322Z,1015.8
2017-04-30T01:18:06.259Z,1015.84
2017-04-30T01:19:06.197Z,1015.86
2017-04-30T01:20:06.135Z,1015.84
2017-04-30T01:21:06.071Z,1015.85
2017-04-30T01:22:06.009Z,1015.85
2017-04-30T01:23:05.946Z,1015.85
2017-04-30T01:24:05.883Z,1015.92
2017-04-30T01:25:05.819Z,1015.87
2017-04-30T01:26:05.757Z,1015.9
2017-04-30T01:27:05.695Z,1015.88
2017-04-30T01:28:05.630Z,1015.87
2017-04-30T01:29:05.569Z,1015.91
2017-04-30T01:30:05.507Z,1015.87
2017-04-30T01:31:05.443Z,1015.91
2017-04-30T01:32:05.379Z,1015.95
2017-04-30T01:33:05.317Z,1015.97
2017-04-30T01:34:05.254Z,1016
2017-04-30T01:35:05.192Z,1015.99
2017-04-30T01:36:05.130Z,1016
2017-04-30T01:37:05.067Z,1016.07
2017-04-30T01:38:05.006Z,1016.07
2017-04-30T01:39:04.941Z,1016.11
2017-04-30T01:40:04.879Z,1016.13
2017-04-30T01:41:04.815Z,1016.15
2017-04-30T01:42:04.753Z,1016.14
2017-04-30T01:43:04.690Z,1016.13
2017-04-30T01:44:04.627Z,1016.16
2017-04-30T01:45:04.567Z,1016.13
2017-04-30T01:46:04.502Z,1016.14
2017-04-30T01:47:04.439Z,1016.17
2017-04-30T01:48:04.377Z,1016.18
2017-04-30T01:49:04.314Z,1016.17
2017-04-30T01:50:04.249Z,1016.19
2017-04-30T01:51:04.188Z,1016.21
2017-04-30T01:52:04.130Z,1016.23
2017-04-30T01:53:04.070Z,1016.24
2017-04-30T01:54:04.009Z,1016.25
2017-04-30T01:55:03.937Z,1016.26
2017-04-30T01:56:03.874Z,1016.28
2017-04-30T01:57:03.809Z,1016.28
2017-04-30T01:58:03.749Z,1016.31
2017-04-30T01:59:03.687Z,1016.31
2017-04-30T02:00:03.623Z,1016.35
2017-04-30T02:01:03.559Z,1016.35
2017-04-30T02:02:03.498Z,1016.37
2017-04-30T02:03:03.436Z,1016.37
2017-04-30T02:04:03.373Z,1016.36
2017-04-30T02:05:03.310Z,1016.38
2017-04-30T02:06:03.246Z,1016.39
2017-04-30T02:07:03.183Z,1016.39
2017-04-30T02:08:03.120Z,1016.39
2017-04-30T02:09:03.057Z,1016.41
2017-04-30T02:10:02.994Z,1016.41
2017-04-30T02:11:02.932Z,1016.44
2017-04-30T02:12:02.869Z,1016.45
2017-04-30T02:13:02.806Z,1016.46
2017-04-30T02:14:02.743Z,1016.43
2017-04-30T02:15:02.681Z,1016.47
2017-04-30T02:16:02.618Z,1016.44
2017-04-30T02:17:02.555Z,1016.44
2017-04-30T02:18:02.492Z,1016.47
2017-04-30T02:19:02.428Z,1016.43
2017-04-30T02:20:02.365Z,1016.44
2017-04-30T02:21:02.303Z,1016.42
2017-04-30T02:22:02.241Z,1016.4
2017-04-30T02:23:02.178Z,1016.41
2017-04-30T02:24:02.116Z,1016.4
2017-04-30T02:25:02.052Z,1016.42
2017-04-30T02:26:01.991Z,1016.43
2017-04-30T02:27:01.926Z,1016.36
2017-04-30T02:28:01.864Z,1016.39
2017-04-30T02:29:01.801Z,1016.39
2017-04-30T02:30:01.736Z,1016.36
2017-04-30T02:31:01.674Z,1016.37
2017-04-30T02:32:01.612Z,1016.35
2017-04-30T02:33:01.550Z,1016.32
2017-04-30T02:34:01.486Z,1016.37
2017-04-30T02:35:01.424Z,1016.41
2017-04-30T02:36:01.362Z,1016.39
2017-04-30T02:37:01.299Z,1016.37
2017-04-30T02:38:01.235Z,1016.39
2017-04-30T02:39:01.175Z,1016.36
2017-04-30T02:40:01.110Z,1016.37
2017-04-30T02:41:01.048Z,1016.39
2017-04-30T02:42:00.983Z,1016.37
2017-04-30T02:43:00.926Z,1016.37
2017-04-30T02:44:00.859Z,1016.38
2017-04-30T02:45:00.795Z,1016.36
2017-04-30T02:46:00.733Z,1016.39
2017-04-30T02:47:00.670Z,1016.34
2017-04-30T02:48:00.607Z,1016.37
2017-04-30T02:49:00.544Z,1016.4
2017-04-30T02:50:00.481Z,1016.41
2017-04-30T02:51:00.419Z,1016.38
2017-04-30T02:52:00.355Z,1016.35
2017-04-30T02:53:00.292Z,1016.36
2017-04-30T02:54:00.231Z,1016.37
2017-04-30T02:55:00.169Z,1016.4
2017-04-30T02:56:00.104Z,1016.37
2017-04-30T02:57:00.042Z,1016.37
2017-04-30T02:57:59.980Z,1016.4
2017-04-30T02:58:59.916Z,1016.4
2017-04-30T02:59:59.856Z,1016.42
2017-04-30T03:00:59.790Z,1016.44
2017-04-30T03:01:59.728Z,1016.46
2017-04-30T03:02:59.664Z,1016.43
2017-04-30T03:03:59.604Z,1016.5
2017-04-30T03:04:59.542Z,1016.42
2017-04-30T03:05:59.477Z,1016.47
2017-04-30T03:06:59.414Z,1016.44
2017-04-30T03:07:59.351Z,1016.42
2017-04-30T03:08:59.288Z,1016.44
2017-04-30T03:09:59.228Z,1016.44
2017-04-30T03:10:59.162Z,1016.41
2017-04-30T03:11:59.101Z,1016.42
2017-04-30T03:12:59.043Z,1016.42
2017-04-30T03:13:58.978Z,1016.4
2017-04-30T03:14:58.912Z,1016.41
2017-04-30T03:15:58.849Z,1016.41
2017-04-30T03:16:58.786Z,1016.47
2017-04-30T03:17:58.724Z,1016.47
2017-04-30T03:18:58.660Z,1016.43
2017-04-30T03:19:58.598Z,1016.44
2017-04-30T03:20:58.535Z,1016.45
2017-04-30T03:21:58.471Z,1016.45
2017-04-30T03:22:58.408Z,1016.46
2017-04-30T03:23:58.346Z,1016.43
2017-04-30T03:24:58.283Z,1016.46
2017-04-30T03:25:58.220Z,1016.44
2017-04-30T03:26:58.157Z,1016.41
2017-04-30T03:27:58.097Z,1016.47
2017-04-30T03:28:58.033Z,1016.41
2017-04-30T03:29:57.968Z,1016.43
2017-04-30T03:30:57.906Z,1016.37
2017-04-30T03:31:57.851Z,1016.39
2017-04-30T03:32:57.780Z,1016.44
2017-04-30T03:33:57.718Z,1016.44
2017-04-30T03:34:57.666Z,1016.46
2017-04-30T03:35:57.592Z,1016.47
2017-04-30T03:36:57.529Z,1016.5
2017-04-30T03:37:57.477Z,1016.51
2017-04-30T03:38:57.415Z,1016.55
2017-04-30T03:39:57.340Z,1016.55
2017-04-30T03:40:57.279Z,1016.58
2017-04-30T03:41:57.215Z,1016.56
2017-04-30T03:42:57.150Z,1016.6
2017-04-30T03:43:57.093Z,1016.6
2017-04-30T03:44:57.026Z,1016.62
2017-04-30T03:45:56.964Z,1016.59
2017-04-30T03:46:56.901Z,1016.62
2017-04-30T03:47:56.837Z,1016.66
2017-04-30T03:48:56.776Z,1016.65
2017-04-30T03:49:56.712Z,1016.65
2017-04-30T03:50:56.648Z,1016.67
2017-04-30T03:51:56.588Z,1016.7
2017-04-30T03:52:56.523Z,1016.69
2017-04-30T03:53:56.459Z,1016.69
2017-04-30T03:54:56.397Z,1016.72
2017-04-30T03:55:56.334Z,1016.71
2017-04-30T03:56:56.272Z,1016.74
2017-04-30T03:57:56.209Z,1016.76
2017-04-30T03:58:56.146Z,1016.73
2017-04-30T03:59:56.084Z,1016.73
2017-04-30T04:00:56.020Z,1016.72
2017-04-30T04:01:55.957Z,1016.76
2017-04-30T04:02:55.895Z,1016.76
2017-04-30T04:03:55.833Z,1016.79
2017-04-30T04:04:55.767Z,1016.76
2017-04-30T04:05:55.706Z,1016.79
2017-04-30T04:06:55.643Z,1016.77
2017-04-30T04:07:55.581Z,1016.75
2017-04-30T04:08:55.516Z,1016.76
2017-04-30T04:09:55.454Z,1016.76
2017-04-30T04:10:55.392Z,1016.78
2017-04-30T04:11:55.329Z,1016.76
2017-04-30T04:12:55.267Z,1016.75
2017-04-30T04:13:55.204Z,1016.79
2017-04-30T04:14:55.141Z,1016.8
2017-04-30T04:15:55.076Z,1016.79
2017-04-30T04:16:55.015Z,1016.82
2017-04-30T04:17:54.953Z,1016.78
2017-04-30T04:18:54.889Z,1016.84
2017-04-30T04:19:54.827Z,1016.86
2017-04-30T04:20:54.762Z,1016.88
2017-04-30T04:21:54.700Z,1016.87
2017-04-30T04:22:54.638Z,1016.86
2017-04-30T04:23:54.583Z,1016.89
2017-04-30T04:24:54.525Z,1016.89
2017-04-30T04:25:54.448Z,1016.91
2017-04-30T04:26:54.394Z,1016.9
2017-04-30T04:27:54.323Z,1016.9
2017-04-30T04:28:54.260Z,1016.89
2017-04-30T04:29:54.198Z,1016.87
2017-04-30T04:30:54.134Z,1016.93
2017-04-30T04:31:54.071Z,1016.96
2017-04-30T04:32:54.008Z,1016.95
2017-04-30T04:33:53.946Z,1016.99
2017-04-30T04:34:53.882Z,1016.98
2017-04-30T04:35:53.821Z,1017.01
2017-04-30T04:36:53.757Z,1017
2017-04-30T04:37:53.699Z,1017.03
2017-04-30T04:38:53.631Z,1017.03
2017-04-30T04:39:53.569Z,1017.06
2017-04-30T04:40:53.506Z,1017.05
2017-04-30T04:41:53.442Z,1017.04
2017-04-30T04:42:53.379Z,1017.05
2017-04-30T04:43:53.317Z,1017.03
2017-04-30T04:44:53.254Z,1017.04
2017-04-30T04:45:53.192Z,1017.06
2017-04-30T04:46:53.129Z,1017.08
2017-04-30T04:47:53.066Z,1017.06
2017-04-30T04:48:53.003Z,1017.07
2017-04-30T04:49:52.941Z,1017.02
2017-04-30T04:50:52.877Z,1017.05
2017-04-30T04:51:52.814Z,1017.06
2017-04-30T04:52:52.752Z,1017.03
2017-04-30T04:53:52.689Z,1017.06
2017-04-30T04:54:52.626Z,1017.05
2017-04-30T04:55:52.563Z,1017.05
2017-04-30T04:56:52.500Z,1017.06
2017-04-30T04:57:52.439Z,1017.05
2017-04-30T04:58:52.375Z,1017.05
2017-04-30T04:59:52.312Z,1017.08
2017-04-30T05:00:52.248Z,1017.11
2017-04-30T05:01:52.186Z,1017.12
2017-04-30T05:02:52.123Z,1017.11
2017-04-30T05:03:52.060Z,1017.13
2017-04-30T05:04:51.997Z,1017.13
2017-04-30T05:05:51.938Z,1017.1
2017-04-30T05:06:51.871Z,1017.11
2017-04-30T05:07:51.808Z,1017.11
2017-04-30T05:08:51.745Z,1017.15
2017-04-30T05:09:51.683Z,1017.17
2017-04-30T05:10:51.620Z,1017.16
2017-04-30T05:11:51.557Z,1017.18
2017-04-30T05:12:51.494Z,1017.19
2017-04-30T05:13:51.432Z,1017.16
2017-04-30T05:14:51.367Z,1017.19
2017-04-30T05:15:51.307Z,1017.18
2017-04-30T05:16:51.244Z,1017.2
2017-04-30T05:17:51.182Z,1017.19
2017-04-30T05:18:51.118Z,1017.23
2017-04-30T05:19:51.053Z,1017.2
2017-04-30T05:20:50.991Z,1017.19
2017-04-30T05:21:50.928Z,1017.2
2017-04-30T05:22:50.866Z,1017.18
2017-04-30T05:23:50.803Z,1017.21
2017-04-30T05:24:50.740Z,1017.24
2017-04-30T05:25:50.675Z,1017.23
2017-04-30T05:26:50.614Z,1017.26
2017-04-30T05:27:50.551Z,1017.21
2017-04-30T05:28:50.487Z,1017.25
2017-04-30T05:29:50.425Z,1017.21
2017-04-30T05:30:50.363Z,1017.22
2017-04-30T05:31:50.300Z,1017.22
2017-04-30T05:32:50.239Z,1017.22
2017-04-30T05:33:50.175Z,1017.25
2017-04-30T05:34:50.111Z,1017.2
2017-04-30T05:35:50.048Z,1017.19
2017-04-30T05:36:49.985Z,1017.18
2017-04-30T05:37:49.923Z,1017.22
2017-04-30T05:38:49.861Z,1017.21
2017-04-30T05:39:49.796Z,1017.23
2017-04-30T05:40:49.744Z,1017.25
2017-04-30T05:41:49.671Z,1017.23
2017-04-30T05:42:49.608Z,1017.25
2017-04-30T05:43:49.545Z,1017.19
2017-04-30T05:44:49.482Z,1017.21
2017-04-30T05:45:49.420Z,1017.18
2017-04-30T05:46:49.358Z,1017.19
2017-04-30T05:47:49.294Z,1017.16
2017-04-30T05:48:49.232Z,1017.16
2017-04-30T05:49:49.169Z,1017.17
2017-04-30T05:50:49.104Z,1017.18
2017-04-30T05:51:49.042Z,1017.17
2017-04-30T05:52:48.979Z,1017.19
2017-04-30T05:53:48.916Z,1017.2
2017-04-30T05:54:48.854Z,1017.23
2017-04-30T05:55:48.791Z,1017.21
2017-04-30T05:56:48.728Z,1017.2
2017-04-30T05:57:48.665Z,1017.22
2017-04-30T05:58:48.602Z,1017.22
2017-04-30T05:59:48.540Z,1017.24
2017-04-30T06:00:48.477Z,1017.28
2017-04-30T06:01:48.413Z,1017.27
2017-04-30T06:02:48.353Z,1017.25
2017-04-30T06:03:48.289Z,1017.28
2017-04-30T06:04:48.226Z,1017.26
2017-04-30T06:05:48.164Z,1017.26
2017-04-30T06:06:48.101Z,1017.25
2017-04-30T06:07:48.037Z,1017.29
2017-04-30T06:08:47.974Z,1017.28
2017-04-30T06:09:47.910Z,1017.28
2017-04-30T06:10:47.848Z,1017.27
2017-04-30T06:11:47.785Z,1017.3
2017-04-30T06:12:47.723Z,1017.28
2017-04-30T06:13:47.658Z,1017.31
2017-04-30T06:14:47.596Z,1017.31
2017-04-30T06:15:47.534Z,1017.3
2017-04-30T06:16:47.471Z,1017.33
2017-04-30T06:17:47.408Z,1017.32
2017-04-30T06:18:47.346Z,1017.36
2017-04-30T06:19:47.284Z,1017.37
2017-04-30T06:20:47.221Z,1017.4
2017-04-30T06:21:47.157Z,1017.35
2017-04-30T06:22:47.095Z,1017.33
2017-04-30T06:23:47.033Z,1017.35
2017-04-30T06:24:46.968Z,1017.32
2017-04-30T06:25:46.906Z,1017.34
2017-04-30T06:26:46.844Z,1017.35
2017-04-30T06:27:46.780Z,1017.32
2017-04-30T06:28:46.717Z,1017.32
2017-04-30T06:29:46.656Z,1017.31
2017-04-30T06:30:46.591Z,1017.35
2017-04-30T06:31:46.529Z,1017.33
2017-04-30T06:32:46.466Z,1017.28
2017-04-30T06:33:46.404Z,1017.25
2017-04-30T06:34:46.340Z,1017.26
2017-04-30T06:35:46.277Z,1017.25
2017-04-30T06:36:46.217Z,1017.25
2017-04-30T06:37:46.153Z,1017.22
2017-04-30T06:38:46.089Z,1017.24
2017-04-30T06:39:46.026Z,1017.23
2017-04-30T06:40:45.964Z,1017.26
2017-04-30T06:41:45.900Z,1017.19
2017-04-30T06:42:45.837Z,1017.16
2017-04-30T06:43:45.777Z,1017.16
2017-04-30T06:44:45.712Z,1017.2
2017-04-30T06:45:45.649Z,1017.21
2017-04-30T06:46:45.586Z,1017.15
2017-04-30T06:47:45.524Z,1017.17
2017-04-30T06:48:45.461Z,1017.19
2017-04-30T06:49:45.397Z,1017.21
2017-04-30T06:50:45.335Z,1017.22
2017-04-30T06:51:45.273Z,1017.21
2017-04-30T06:52:45.209Z,1017.27
2017-04-30T06:53:45.145Z,1017.25
2017-04-30T06:54:45.085Z,1017.2
2017-04-30T06:55:45.020Z,1017.24
2017-04-30T06:56:44.958Z,1017.25
2017-04-30T06:57:44.895Z,1017.25
2017-04-30T06:58:44.832Z,1017.23
2017-04-30T06:59:44.770Z,1017.22
2017-04-30T07:00:44.706Z,1017.19
2017-04-30T07:01:44.643Z,1017.21
2017-04-30T07:02:44.581Z,1017.19
2017-04-30T07:03:44.518Z,1017.21
2017-04-30T07:04:44.455Z,1017.18
2017-04-30T07:05:44.393Z,1017.21
2017-04-30T07:06:44.334Z,1017.22
2017-04-30T07:07:44.267Z,1017.23
2017-04-30T07:08:44.205Z,1017.21
2017-04-30T07:09:44.140Z,1017.21
2017-04-30T07:10:44.079Z,1017.22
2017-04-30T07:11:44.017Z,1017.25
2017-04-30T07:12:43.953Z,1017.23
2017-04-30T07:13:43.891Z,1017.23
2017-04-30T07:14:43.827Z,1017.24
2017-04-30T07:15:43.764Z,1017.3
2017-04-30T07:16:43.703Z,1017.3
2017-04-30T07:17:43.639Z,1017.31
2017-04-30T07:18:43.577Z,1017.31
2017-04-30T07:19:43.514Z,1017.32
2017-04-30T07:20:43.451Z,1017.31
2017-04-30T07:21:43.389Z,1017.26
2017-04-30T07:22:43.323Z,1017.27
2017-04-30T07:23:43.263Z,1017.24
2017-04-30T07:24:43.200Z,1017.25
2017-04-30T07:25:43.136Z,1017.31
2017-04-30T07:26:43.073Z,1017.25
2017-04-30T07:27:43.012Z,1017.25
2017-04-30T07:28:42.949Z,1017.25
2017-04-30T07:29:42.886Z,1017.25
2017-04-30T07:30:42.823Z,1017.21
2017-04-30T07:31:42.761Z,1017.23
2017-04-30T07:32:42.698Z,1017.21
2017-04-30T07:33:42.637Z,1017.18
2017-04-30T07:34:42.606Z,1017.19
2017-04-30T07:35:42.509Z,1017.22
2017-04-30T07:36:42.446Z,1017.16
2017-04-30T07:37:42.384Z,1017.19
2017-04-30T07:38:42.322Z,1017.21
2017-04-30T07:39:42.258Z,1017.25
2017-04-30T07:40:42.196Z,1017.22
2017-04-30T07:41:42.133Z,1017.23
2017-04-30T07:42:42.070Z,1017.15
2017-04-30T07:43:42.008Z,1017.2
2017-04-30T07:44:41.944Z,1017.16
2017-04-30T07:45:41.882Z,1017.17
2017-04-30T07:46:41.820Z,1017.2
2017-04-30T07:47:41.755Z,1017.25
2017-04-30T07:48:41.693Z,1017.21
2017-04-30T07:49:41.633Z,1017.22
2017-04-30T07:50:41.568Z,1017.21
2017-04-30T07:51:41.506Z,1017.24
2017-04-30T07:52:41.451Z,1017.23
2017-04-30T07:53:41.381Z,1017.24
2017-04-30T07:54:41.319Z,1017.19
2017-04-30T07:55:41.256Z,1017.24
2017-04-30T07:56:41.193Z,1017.23
2017-04-30T07:57:41.130Z,1017.22
2017-04-30T07:58:41.070Z,1017.26
2017-04-30T07:59:41.006Z,1017.23
2017-04-30T08:00:40.944Z,1017.23
2017-04-30T08:01:40.880Z,1017.21
2017-04-30T08:02:40.817Z,1017.23
2017-04-30T08:03:40.755Z,1017.21
2017-04-30T08:04:40.692Z,1017.22
2017-04-30T08:05:40.627Z,1017.21
2017-04-30T08:06:40.567Z,1017.19
2017-04-30T08:07:40.503Z,1017.21
2017-04-30T08:08:40.441Z,1017.18
2017-04-30T08:09:40.379Z,1017.22
2017-04-30T08:10:40.316Z,1017.22
2017-04-30T08:11:40.253Z,1017.19
2017-04-30T08:12:40.191Z,1017.19
2017-04-30T08:13:40.127Z,1017.17
2017-04-30T08:14:40.066Z,1017.23
2017-04-30T08:15:40.015Z,1017.22
2017-04-30T08:16:39.938Z,1017.19
2017-04-30T08:17:39.877Z,1017.16
2017-04-30T08:18:39.813Z,1017.2
2017-04-30T08:19:39.753Z,1017.1
2017-04-30T08:20:39.689Z,1017.11
2017-04-30T08:21:39.627Z,1017.12
2017-04-30T08:22:39.564Z,1017.13
2017-04-30T08:23:39.502Z,1017.13
2017-04-30T08:24:39.438Z,1017.11
2017-04-30T08:25:39.375Z,1017.13
2017-04-30T08:26:39.313Z,1017.13
2017-04-30T08:27:39.250Z,1017.11
2017-04-30T08:28:39.188Z,1017.16
2017-04-30T08:29:39.126Z,1017.12
2017-04-30T08:30:39.064Z,1017.11
2017-04-30T08:31:38.999Z,1017.13
2017-04-30T08:32:38.937Z,1017.11
2017-04-30T08:33:38.875Z,1017.11
2017-04-30T08:34:38.813Z,1017.11
2017-04-30T08:35:38.749Z,1017.14
2017-04-30T08:36:38.688Z,1017.13
2017-04-30T08:37:38.624Z,1017.12
2017-04-30T08:38:38.561Z,1017.09
2017-04-30T08:39:38.497Z,1017.07
2017-04-30T08:40:38.436Z,1017.09
2017-04-30T08:41:38.376Z,1017.1
2017-04-30T08:42:38.311Z,1017.06
2017-04-30T08:43:38.249Z,1017.01
2017-04-30T08:44:38.186Z,1017.01
2017-04-30T08:45:38.125Z,1017.02
2017-04-30T08:46:38.063Z,1017.01
2017-04-30T08:47:37.998Z,1017.01
2017-04-30T08:48:37.934Z,1017
2017-04-30T08:49:37.874Z,1016.94
2017-04-30T08:50:37.811Z,1016.97
2017-04-30T08:51:37.748Z,1017.01
2017-04-30T08:52:37.686Z,1016.99
2017-04-30T08:53:37.637Z,1016.99
2017-04-30T08:54:37.559Z,1016.98
2017-04-30T08:55:37.497Z,1016.97
2017-04-30T08:56:37.446Z,1016.92
2017-04-30T08:57:37.374Z,1016.9
2017-04-30T08:58:37.309Z,1016.91
2017-04-30T08:59:37.246Z,1016.93
2017-04-30T09:00:37.183Z,1016.95
2017-04-30T09:01:37.122Z,1016.9
2017-04-30T09:02:37.058Z,1016.89
2017-04-30T09:03:36.997Z,1016.9
2017-04-30T09:04:36.934Z,1016.89
2017-04-30T09:05:36.869Z,1016.88
2017-04-30T09:06:36.808Z,1016.88
2017-04-30T09:07:36.747Z,1016.89
2017-04-30T09:08:36.684Z,1016.86
2017-04-30T09:09:36.621Z,1016.88
2017-04-30T09:10:36.558Z,1016.88
2017-04-30T09:11:36.496Z,1016.88
2017-04-30T09:12:36.432Z,1016.84
2017-04-30T09:13:36.370Z,1016.91
2017-04-30T09:14:36.308Z,1016.88
2017-04-30T09:15:36.245Z,1016.9
2017-04-30T09:16:36.183Z,1016.89
2017-04-30T09:17:36.121Z,1016.88
2017-04-30T09:18:36.060Z,1016.88
2017-04-30T09:19:35.994Z,1016.87
2017-04-30T09:20:35.932Z,1016.85
2017-04-30T09:21:35.870Z,1016.85
2017-04-30T09:22:35.806Z,1016.86
2017-04-30T09:23:35.745Z,1016.81
2017-04-30T09:24:35.683Z,1016.82
2017-04-30T09:25:35.619Z,1016.82
2017-04-30T09:26:35.559Z,1016.89
2017-04-30T09:27:35.492Z,1016.88
2017-04-30T09:28:35.433Z,1016.83
2017-04-30T09:29:35.369Z,1016.82
2017-04-30T09:30:35.308Z,1016.86
2017-04-30T09:31:35.244Z,1016.81
2017-04-30T09:32:35.182Z,1016.81
2017-04-30T09:33:35.119Z,1016.77
2017-04-30T09:34:35.058Z,1016.77
2017-04-30T09:35:35.003Z,1016.74
2017-04-30T09:36:34.932Z,1016.8
2017-04-30T09:37:34.870Z,1016.76
2017-04-30T09:38:34.807Z,1016.76
2017-04-30T09:39:34.745Z,1016.8
2017-04-30T09:40:34.680Z,1016.73
2017-04-30T09:41:34.618Z,1016.67
2017-04-30T09:42:34.557Z,1016.68
2017-04-30T09:43:34.496Z,1016.73
2017-04-30T09:44:34.431Z,1016.7
2017-04-30T09:45:34.369Z,1016.64
2017-04-30T09:46:34.307Z,1016.64
2017-04-30T09:47:34.243Z,1016.61
2017-04-30T09:48:34.182Z,1016.62
2017-04-30T09:49:34.118Z,1016.65
2017-04-30T09:50:34.057Z,1016.63
2017-04-30T09:51:33.997Z,1016.61
2017-04-30T09:52:33.932Z,1016.59
2017-04-30T09:53:33.869Z,1016.54
2017-04-30T09:54:33.808Z,1016.6
2017-04-30T09:55:33.752Z,1016.56
2017-04-30T09:56:33.680Z,1016.58
2017-04-30T09:57:33.619Z,1016.51
2017-04-30T09:58:33.557Z,1016.58
2017-04-30T09:59:33.493Z,1016.53
2017-04-30T10:00:33.431Z,1016.49
2017-04-30T10:01:33.369Z,1016.5
2017-04-30T10:02:33.307Z,1016.49
2017-04-30T10:03:33.247Z,1016.46
2017-04-30T10:04:33.180Z,1016.44
2017-04-30T10:05:33.118Z,1016.45
2017-04-30T10:06:33.055Z,1016.43
2017-04-30T10:07:32.997Z,1016.45
2017-04-30T10:08:32.931Z,1016.46
2017-04-30T10:09:32.869Z,1016.38
2017-04-30T10:10:32.805Z,1016.34
2017-04-30T10:11:32.744Z,1016.3
2017-04-30T10:12:32.682Z,1016.35
2017-04-30T10:13:32.619Z,1016.35
2017-04-30T10:14:32.556Z,1016.37
2017-04-30T10:15:32.493Z,1016.35
2017-04-30T10:16:32.431Z,1016.32
2017-04-30T10:17:32.369Z,1016.3
2017-04-30T10:18:32.305Z,1016.34
2017-04-30T10:19:32.261Z,1016.32
2017-04-30T10:20:32.186Z,1016.27
2017-04-30T10:21:32.118Z,1016.21
2017-04-30T10:22:32.055Z,1016.2
2017-04-30T10:23:31.993Z,1016.23
2017-04-30T10:24:31.931Z,1016.26
2017-04-30T10:25:31.868Z,1016.35
2017-04-30T10:26:31.805Z,1016.28
2017-04-30T10:27:31.743Z,1016.25
2017-04-30T10:28:31.681Z,1016.2
2017-04-30T10:29:31.619Z,1016.16
2017-04-30T10:30:31.570Z,1016.18
2017-04-30T10:31:31.495Z,1016.2
2017-04-30T10:32:31.431Z,1016.18
2017-04-30T10:33:31.369Z,1016.15
2017-04-30T10:34:31.307Z,1016.14
2017-04-30T10:35:31.243Z,1016.1
2017-04-30T10:36:31.181Z,1016.11
2017-04-30T10:37:31.120Z,1016.06
2017-04-30T10:38:31.058Z,1016.11
2017-04-30T10:39:30.994Z,1016.08
2017-04-30T10:40:30.931Z,1016.14
2017-04-30T10:41:30.869Z,1016.07
2017-04-30T10:42:30.809Z,1016.09
2017-04-30T10:43:30.746Z,1016.11
2017-04-30T10:44:30.683Z,1016.11
2017-04-30T10:45:30.620Z,1016.04
2017-04-30T10:46:30.559Z,1016.11
2017-04-30T10:47:30.495Z,1016.1
2017-04-30T10:48:30.434Z,1016.02
2017-04-30T10:49:30.372Z,1016.05
2017-04-30T10:50:30.309Z,1016.03
2017-04-30T10:51:30.247Z,1016.02
2017-04-30T10:52:30.184Z,1015.99
2017-04-30T10:53:30.120Z,1016.01
2017-04-30T10:54:30.059Z,1016.03
2017-04-30T10:55:29.997Z,1015.96
2017-04-30T10:56:29.935Z,1015.96
2017-04-30T10:57:29.872Z,1015.98
2017-04-30T10:58:29.809Z,1015.94
2017-04-30T10:59:29.747Z,1015.98
2017-04-30T11:00:29.685Z,1015.97
2017-04-30T11:01:29.622Z,1015.96
2017-04-30T11:02:29.562Z,1015.99
2017-04-30T11:03:29.498Z,1015.97
2017-04-30T11:04:29.436Z,1015.95
2017-04-30T11:05:29.374Z,1015.9
2017-04-30T11:06:29.313Z,1015.81
2017-04-30T11:07:29.249Z,1015.85
2017-04-30T11:08:29.188Z,1015.85
2017-04-30T11:09:29.126Z,1015.81
2017-04-30T11:10:29.062Z,1015.81
2017-04-30T11:11:29.000Z,1015.83
2017-04-30T11:12:28.949Z,1015.78
2017-04-30T11:13:28.876Z,1015.81
2017-04-30T11:14:28.814Z,1015.68
2017-04-30T11:15:28.751Z,1015.79
2017-04-30T11:16:28.688Z,1015.73
2017-04-30T11:17:28.628Z,1015.73
2017-04-30T11:18:28.564Z,1015.7
2017-04-30T11:19:28.501Z,1015.7
2017-04-30T11:20:28.439Z,1015.72
2017-04-30T11:21:28.377Z,1015.66
2017-04-30T11:22:28.316Z,1015.68
2017-04-30T11:23:28.253Z,1015.63
2017-04-30T11:24:28.191Z,1015.55
2017-04-30T11:25:28.129Z,1015.63
2017-04-30T11:26:28.065Z,1015.66
2017-04-30T11:27:28.003Z,1015.64
2017-04-30T11:28:27.941Z,1015.65
2017-04-30T11:29:27.880Z,1015.7
2017-04-30T11:30:27.817Z,1015.64
2017-04-30T11:31:27.755Z,1015.67
2017-04-30T11:32:27.692Z,1015.63
2017-04-30T11:33:27.632Z,1015.66
2017-04-30T11:34:27.568Z,1015.64
2017-04-30T11:35:27.506Z,1015.65
2017-04-30T11:36:27.445Z,1015.59
2017-04-30T11:37:27.382Z,1015.6
2017-04-30T11:38:27.318Z,1015.63
2017-04-30T11:39:27.257Z,1015.58
2017-04-30T11:40:27.195Z,1015.53
2017-04-30T11:41:27.130Z,1015.56
2017-04-30T11:42:27.070Z,1015.51
2017-04-30T11:43:27.009Z,1015.48
2017-04-30T11:44:26.945Z,1015.52
2017-04-30T11:45:26.882Z,1015.56
2017-04-30T11:46:26.821Z,1015.52
2017-04-30T11:47:26.759Z,1015.51
2017-04-30T11:48:26.696Z,1015.45
2017-04-30T11:49:26.635Z,1015.49
2017-04-30T11:50:26.571Z,1015.49
2017-04-30T11:51:26.511Z,1015.47
2017-04-30T11:52:26.448Z,1015.46
2017-04-30T11:53:26.386Z,1015.44
2017-04-30T11:54:26.324Z,1015.54
2017-04-30T11:55:26.262Z,1015.44
2017-04-30T11:56:26.198Z,1015.42
2017-04-30T11:57:26.137Z,1015.38
2017-04-30T11:58:26.075Z,1015.36
2017-04-30T11:59:26.013Z,1015.29
2017-04-30T12:00:25.950Z,1015.33
2017-04-30T12:01:25.888Z,1015.37
2017-04-30T12:02:25.827Z,1015.36
2017-04-30T12:03:25.762Z,1015.32
2017-04-30T12:04:25.701Z,1015.32
2017-04-30T12:05:25.639Z,1015.27
2017-04-30T12:06:25.577Z,1015.28
2017-04-30T12:07:25.515Z,1015.18
2017-04-30T12:08:25.453Z,1015.26